Dudley J. Settoon — WDD4745 — position and weather

sailwx.info

Track history (hours):
 
Tides and Currents Weather Stations Pressure Air Temp Water Temp Dewpoint Dewpoint Depression Visibility Wind Speed Wind Dir Waves Ship Positions

Dudley J. Settoon

Owner: Settoon Towing, LLC, Gibson, LA. More information available from US FCC via Universal Licensing System and Coast Guard Vessel Documentation Center.

Last reported at 2017-Dec-16 09:49 UTC. Time now 2017-Dec-17 15:34 UTC.
Position N 29°36' W 090°58'.

Length 30 m; draft 5 m.

Type: Towing. MMSI: 366994890.

Date/timePositionNaut miles runAvg speedWind from/ knotsBaromVisibWave heightAir tempDewpointWater temp
2017-Dec-16 09:49N 29°36' W 090°58'2 5.8
2017-Dec-16 09:30N 29°34' W 090°57'3 5.9
2017-Dec-16 09:00N 29°33' W 090°54'3 5.9
2017-Dec-16 08:30N 29°32' W 090°51'3 6.1
2017-Dec-16 08:00N 29°32' W 090°47'2 4.7
2017-Dec-16 07:30N 29°34' W 090°45'2 4.7
2017-Dec-16 07:00N 29°33' W 090°42'4 7.1
2017-Dec-16 06:30N 29°30' W 090°43'4 7.2
2017-Dec-16 06:00N 29°26' W 090°43'8 0.4
2017-Dec-15 07:03N 29°18' W 090°43'1 6.1
2017-Dec-15 06:55N 29°18' W 090°43'2 5.5
2017-Dec-15 06:28N 29°21' W 090°44'2 5.0
2017-Dec-15 06:00N 29°23' W 090°44'3 5.5
2017-Dec-15 05:30N 29°26' W 090°43'3 5.6
2017-Dec-15 05:00N 29°28' W 090°43'3 5.3
2017-Dec-15 04:30N 29°31' W 090°43'2 4.7
2017-Dec-15 04:00N 29°33' W 090°43'5 3.3
2017-Dec-15 02:30N 29°32' W 090°48'7 0.2
2017-Dec-13 18:01N 29°34' W 090°56'1 5.9
2017-Dec-13 17:56N 29°34' W 090°55'4 5.5
2017-Dec-13 17:17N 29°32' W 090°51'2 5.8
2017-Dec-13 17:00N 29°32' W 090°50'3 5.7
2017-Dec-13 16:30N 29°32' W 090°46'2 4.7
2017-Dec-13 16:00N 29°34' W 090°44'2 3.3
2017-Dec-13 15:30N 29°35' W 090°43'0 0.2
2017-Dec-13 15:00N 29°35' W 090°43'0 0.0
2017-Dec-13 14:30N 29°35' W 090°43'0 0.0
2017-Dec-13 14:00N 29°35' W 090°43'1 2.5
2017-Dec-13 13:30N 29°36' W 090°43'1 2.6
2017-Dec-13 13:00N 29°36' W 090°41'2 3.1
2017-Dec-13 12:30N 29°36' W 090°40'0 0.0
2017-Dec-13 12:00N 29°36' W 090°40'0 0.0
2017-Dec-13 11:30N 29°36' W 090°40'0 0.0
2017-Dec-13 11:00N 29°36' W 090°40'0 0.0
2017-Dec-13 10:30N 29°36' W 090°40'0 0.0
2017-Dec-13 10:00N 29°36' W 090°40'0 0.0
2017-Dec-13 09:30N 29°36' W 090°40'0 0.0
2017-Dec-13 09:00N 29°36' W 090°40'0 0.0
2017-Dec-13 08:30N 29°36' W 090°40'0 0.0
2017-Dec-13 08:00N 29°36' W 090°40'0 0.0
2017-Dec-13 07:30N 29°36' W 090°40'0 0.2
2017-Dec-13 07:00N 29°36' W 090°39'3 5.3
2017-Dec-13 06:30N 29°35' W 090°37'3 5.3
2017-Dec-13 06:00N 29°34' W 090°34'3 5.4
2017-Dec-13 05:30N 29°34' W 090°31'3 5.5
2017-Dec-13 05:00N 29°33' W 090°28'  
2017-Dec-10 16:27N 29°33' W 090°24'0 0.4
2017-Dec-10 15:53N 29°33' W 090°25'2 5.3
2017-Dec-10 15:29N 29°33' W 090°27'3 7.2
2017-Dec-10 15:00N 29°34' W 090°31'3 5.9
2017-Dec-10 14:30N 29°34' W 090°34'3 6.4
2017-Dec-10 14:00N 29°35' W 090°38'1 2.1
2017-Dec-10 13:30N 29°36' W 090°39'2 4.9
2017-Dec-10 13:00N 29°37' W 090°41'2 4.4
2017-Dec-10 12:30N 29°35' W 090°43'0 0.1
2017-Dec-10 12:00N 29°35' W 090°43'0 0.2
2017-Dec-10 11:30N 29°35' W 090°43'0 0.0
2017-Dec-10 11:00N 29°35' W 090°43'0 0.0
2017-Dec-10 10:30N 29°35' W 090°43'0 0.0
2017-Dec-10 10:00N 29°35' W 090°43'0 0.0
2017-Dec-10 09:30N 29°35' W 090°43'0 0.0
2017-Dec-10 09:00N 29°35' W 090°43'0 0.0
2017-Dec-10 08:30N 29°35' W 090°43'0 0.0
2017-Dec-10 08:00N 29°35' W 090°43'0 0.0
2017-Dec-10 07:30N 29°35' W 090°43'0 0.0
2017-Dec-10 07:00N 29°35' W 090°43'0 0.0
2017-Dec-10 06:30N 29°35' W 090°43'0 0.0
2017-Dec-10 06:00N 29°35' W 090°43'0 0.0
2017-Dec-10 05:30N 29°35' W 090°43'0 0.0
2017-Dec-10 05:00N 29°35' W 090°43'0 0.0
2017-Dec-10 04:30N 29°35' W 090°43'0 0.0
2017-Dec-10 04:00N 29°35' W 090°43'0 0.0
2017-Dec-10 03:30N 29°35' W 090°43'0 0.0
2017-Dec-10 03:00N 29°35' W 090°43'0 0.9
2017-Dec-10 02:30N 29°34' W 090°43'3 6.1
2017-Dec-10 02:00N 29°32' W 090°46'4 7.4
2017-Dec-10 01:30N 29°32' W 090°50'4 7.2
2017-Dec-10 00:55N 29°33' W 090°55'5 0.3
2017-Dec-09 11:10N 29°38' W 090°56'0 0.0
2017-Dec-09 10:59N 29°38' W 090°56'0 0.0
2017-Dec-09 10:27N 29°38' W 090°56'0 0.0
2017-Dec-09 09:53N 29°38' W 090°56'0 0.0
2017-Dec-09 09:27N 29°38' W 090°56'3 0.9
2017-Dec-09 06:30N 29°36' W 090°58'3 5.5
2017-Dec-09 06:00N 29°34' W 090°56'3 5.8
2017-Dec-09 05:30N 29°32' W 090°53'3 5.8
2017-Dec-09 05:00N 29°32' W 090°50'3 5.9
2017-Dec-09 04:30N 29°32' W 090°46'3 5.3
2017-Dec-09 04:00N 29°34' W 090°44'2 4.7
2017-Dec-09 03:30N 29°36' W 090°43'2 4.1
2017-Dec-09 03:00N 29°36' W 090°40'3 5.7
2017-Dec-09 02:30N 29°35' W 090°37'3 5.6
2017-Dec-09 02:00N 29°34' W 090°34'3 5.6
2017-Dec-09 01:30N 29°34' W 090°31'  
Track history (hours):
 
Tides and Currents Weather Stations Pressure Air Temp Water Temp Dewpoint Dewpoint Depression Visibility Wind Speed Wind Dir Waves Ship Positions

Dudley J. Settoon

Owner: Settoon Towing, LLC, Gibson, LA. More information available from US FCC via Universal Licensing System and Coast Guard Vessel Documentation Center.

Last reported at 2017-Dec-16 09:49 UTC. Time now 2017-Dec-17 15:34 UTC.
Position N 29°36' W 090°58'.

Length 30 m; draft 5 m.

Type: Towing. MMSI: 366994890.

Date/timePositionNaut miles runAvg speedWind from/ knotsBaromVisibWave heightAir tempDewpointWater temp
2017-Dec-16 09:49N 29°36' W 090°58'2 5.8
2017-Dec-16 09:30N 29°34' W 090°57'3 5.9
2017-Dec-16 09:00N 29°33' W 090°54'3 5.9
2017-Dec-16 08:30N 29°32' W 090°51'3 6.1
2017-Dec-16 08:00N 29°32' W 090°47'2 4.7
2017-Dec-16 07:30N 29°34' W 090°45'2 4.7
2017-Dec-16 07:00N 29°33' W 090°42'4 7.1
2017-Dec-16 06:30N 29°30' W 090°43'4 7.2
2017-Dec-16 06:00N 29°26' W 090°43'8 0.4
2017-Dec-15 07:03N 29°18' W 090°43'1 6.1
2017-Dec-15 06:55N 29°18' W 090°43'2 5.5
2017-Dec-15 06:28N 29°21' W 090°44'2 5.0
2017-Dec-15 06:00N 29°23' W 090°44'3 5.5
2017-Dec-15 05:30N 29°26' W 090°43'3 5.6
2017-Dec-15 05:00N 29°28' W 090°43'3 5.3
2017-Dec-15 04:30N 29°31' W 090°43'2 4.7
2017-Dec-15 04:00N 29°33' W 090°43'5 3.3
2017-Dec-15 02:30N 29°32' W 090°48'7 0.2
2017-Dec-13 18:01N 29°34' W 090°56'1 5.9
2017-Dec-13 17:56N 29°34' W 090°55'4 5.5
2017-Dec-13 17:17N 29°32' W 090°51'2 5.8
2017-Dec-13 17:00N 29°32' W 090°50'3 5.7
2017-Dec-13 16:30N 29°32' W 090°46'2 4.7
2017-Dec-13 16:00N 29°34' W 090°44'2 3.3
2017-Dec-13 15:30N 29°35' W 090°43'0 0.2
2017-Dec-13 15:00N 29°35' W 090°43'0 0.0
2017-Dec-13 14:30N 29°35' W 090°43'0 0.0
2017-Dec-13 14:00N 29°35' W 090°43'1 2.5
2017-Dec-13 13:30N 29°36' W 090°43'1 2.6
2017-Dec-13 13:00N 29°36' W 090°41'2 3.1
2017-Dec-13 12:30N 29°36' W 090°40'0 0.0
2017-Dec-13 12:00N 29°36' W 090°40'0 0.0
2017-Dec-13 11:30N 29°36' W 090°40'0 0.0
2017-Dec-13 11:00N 29°36' W 090°40'0 0.0
2017-Dec-13 10:30N 29°36' W 090°40'0 0.0
2017-Dec-13 10:00N 29°36' W 090°40'0 0.0
2017-Dec-13 09:30N 29°36' W 090°40'0 0.0
2017-Dec-13 09:00N 29°36' W 090°40'0 0.0
2017-Dec-13 08:30N 29°36' W 090°40'0 0.0
2017-Dec-13 08:00N 29°36' W 090°40'0 0.0
2017-Dec-13 07:30N 29°36' W 090°40'0 0.2
2017-Dec-13 07:00N 29°36' W 090°39'3 5.3
2017-Dec-13 06:30N 29°35' W 090°37'3 5.3
2017-Dec-13 06:00N 29°34' W 090°34'3 5.4
2017-Dec-13 05:30N 29°34' W 090°31'3 5.5
2017-Dec-13 05:00N 29°33' W 090°28'  
2017-Dec-10 16:27N 29°33' W 090°24'0 0.4
2017-Dec-10 15:53N 29°33' W 090°25'2 5.3
2017-Dec-10 15:29N 29°33' W 090°27'3 7.2
2017-Dec-10 15:00N 29°34' W 090°31'3 5.9
2017-Dec-10 14:30N 29°34' W 090°34'3 6.4
2017-Dec-10 14:00N 29°35' W 090°38'1 2.1
2017-Dec-10 13:30N 29°36' W 090°39'2 4.9
2017-Dec-10 13:00N 29°37' W 090°41'2 4.4
2017-Dec-10 12:30N 29°35' W 090°43'0 0.1
2017-Dec-10 12:00N 29°35' W 090°43'0 0.2
2017-Dec-10 11:30N 29°35' W 090°43'0 0.0
2017-Dec-10 11:00N 29°35' W 090°43'0 0.0
2017-Dec-10 10:30N 29°35' W 090°43'0 0.0
2017-Dec-10 10:00N 29°35' W 090°43'0 0.0
2017-Dec-10 09:30N 29°35' W 090°43'0 0.0
2017-Dec-10 09:00N 29°35' W 090°43'0 0.0
2017-Dec-10 08:30N 29°35' W 090°43'0 0.0
2017-Dec-10 08:00N 29°35' W 090°43'0 0.0
2017-Dec-10 07:30N 29°35' W 090°43'0 0.0
2017-Dec-10 07:00N 29°35' W 090°43'0 0.0
2017-Dec-10 06:30N 29°35' W 090°43'0 0.0
2017-Dec-10 06:00N 29°35' W 090°43'0 0.0
2017-Dec-10 05:30N 29°35' W 090°43'0 0.0
2017-Dec-10 05:00N 29°35' W 090°43'0 0.0
2017-Dec-10 04:30N 29°35' W 090°43'0 0.0
2017-Dec-10 04:00N 29°35' W 090°43'0 0.0
2017-Dec-10 03:30N 29°35' W 090°43'0 0.0
2017-Dec-10 03:00N 29°35' W 090°43'0 0.9
2017-Dec-10 02:30N 29°34' W 090°43'3 6.1
2017-Dec-10 02:00N 29°32' W 090°46'4 7.4
2017-Dec-10 01:30N 29°32' W 090°50'4 7.2
2017-Dec-10 00:55N 29°33' W 090°55'5 0.3
2017-Dec-09 11:10N 29°38' W 090°56'0 0.0
2017-Dec-09 10:59N 29°38' W 090°56'0 0.0
2017-Dec-09 10:27N 29°38' W 090°56'0 0.0
2017-Dec-09 09:53N 29°38' W 090°56'0 0.0
2017-Dec-09 09:27N 29°38' W 090°56'3 0.9
2017-Dec-09 06:30N 29°36' W 090°58'3 5.5
2017-Dec-09 06:00N 29°34' W 090°56'3 5.8
2017-Dec-09 05:30N 29°32' W 090°53'3 5.8
2017-Dec-09 05:00N 29°32' W 090°50'3 5.9
2017-Dec-09 04:30N 29°32' W 090°46'3 5.3
2017-Dec-09 04:00N 29°34' W 090°44'2 4.7
2017-Dec-09 03:30N 29°36' W 090°43'2 4.1
2017-Dec-09 03:00N 29°36' W 090°40'3 5.7
2017-Dec-09 02:30N 29°35' W 090°37'3 5.6
2017-Dec-09 02:00N 29°34' W 090°34'3 5.6
2017-Dec-09 01:30N 29°34' W 090°31'  

Dump ship's entire track history